EW3114 Weather Reports


Display with metric or nautical units.
time (UTC)temp
F
wind
direction
speed
MPH
gust
MPH
rain 1hr
in
rain 24hr
in
rain mn
in
humidity
%
barometer
mb
20260906101530 0 0.0 0.0 0.00 0.00 0.00 1019.2
20260906100021 0 0.0 0.0 0.00 0.00 0.00 1019.2
20260906094504 0 0.0 0.0 0.00 0.00 0.00 1019.0
20260906093118 0 76 0.0 0.0 0.00 0.00 0.00 1019.0
20260906091554 73 91 0.0 0.0 0.00 0.00 0.00 80 1018.9
20260906090051 73 84 0.0 0.0 0.00 0.00 0.00 80 1018.8
20260906084546 73 58 0.0 0.0 0.00 0.00 0.00 83 1018.7
20260906083044 73 72 0.0 0.0 0.00 0.00 0.00 82 1018.8
20260906081535 73 159 0.0 0.0 0.00 0.00 0.00 81 1018.8
20260906080038 73 91 0.0 0.0 0.00 0.00 0.00 80 1018.9
20260906074530 73 131 0.0 0.0 0.00 0.00 0.00 1018.8
20260906073026 73 155 0.0 0.0 0.00 0.00 0.00 81 1018.8
20260906071521 74 150 0.0 0.0 0.00 0.00 0.00 81 1019.0
20260906070015 74 116 0.0 0.0 0.00 0.00 0.00 82 1018.9
20260906064510 74 99 0.0 0.0 0.00 0.00 0.00 82 1019.1
20260906063006 74 113 0.0 0.0 0.00 0.00 0.00 82 1019.0
20260906061536 0 124 0.0 0.0 0.00 0.00 0.00 83 1019.0
20260906060033 73 110 0.0 0.0 0.00 0.00 0.00 84 1019.0
20260906054515 0 186 0.0 0.0 0.00 0.00 0.00 1018.9
20260906053011 0 237 0.0 0.0 0.00 0.00 0.00 1018.8
20260906051505 0 108 0.0 0.0 0.00 0.00 0.00 1018.5
20260906050001 0 210 0.0 0.0 0.00 0.00 0.00 1018.5
20260906044557 0 161 0.0 0.0 0.00 0.00 0.00 1018.3
20260906043056 0 238 0.0 0.0 0.00 0.00 0.00 1018.2
20260906041548 0 205 0.0 0.0 0.00 0.00 0.00 1017.9
20260906040043 0 96 0.0 0.0 0.00 0.00 0.00 1017.9
20260906034543 0 210 0.0 0.0 0.00 0.00 0.00 1017.9
20260906033023 0 82 0.0 0.0 0.00 0.00 0.00 1018.0
20260906031519 0 81 0.0 0.0 0.00 0.00 0.00 1017.9
20260906030016 0 93 0.0 0.0 0.00 0.00 0.00 1017.7
20260906024510 0 112 0.0 0.0 0.00 0.00 0.00 1017.8
20260906023015 0 202 0.0 0.0 0.00 0.00 0.00 1017.7
20260906021603 0 69 0.0 0.0 0.00 0.00 0.00 1017.9
20260906020058 0 51 0.0 0.0 0.00 0.00 0.00 1017.9
20260906014606 0 255 0.0 0.0 0.00 0.00 0.00 1017.9
20260906013029 0 174 0.0 0.0 0.00 0.00 0.00 1017.8
20260906011520 0 96 0.0 0.0 0.00 0.00 0.00 1017.5
20260906010003 0 192 0.0 0.0 0.00 0.00 0.00 1017.2
20260906004600 0 344 0.0 0.0 0.00 0.00 0.00 1017.0
20260906003054 0 82 0.0 0.0 0.00 0.00 0.00 1017.0
20260906001550 74 109 0.0 0.0 0.00 0.00 0.00 83 1017.0
20260906000046 74 237 0.0 0.0 0.00 0.00 0.00 1016.9
20260905234540 0 246 0.0 0.0 0.00 0.00 0.00 1017.0
20260905233041 0 94 0.0 0.0 0.00 0.00 0.00 1017.0
20260905231541 75 141 0.0 0.0 0.00 0.00 0.00 81 1016.8
20260905230017 75 345 0.0 0.0 0.00 0.00 0.00 81 1016.6
20260905224512 76 300 0.0 0.0 0.00 0.00 0.00 79 1016.6
20260905223007 77 165 0.0 0.0 0.00 0.00 0.00 79 1016.8
20260905221506 78 48 0.0 0.0 0.00 0.00 0.00 77 1016.6
20260905220101 78 282 0.0 0.0 0.00 0.00 0.00 76 1016.5
20260905214555 79 293 0.0 0.0 0.00 0.00 0.00 75 1016.3
20260905213048 79 175 0.0 0.0 0.00 0.00 0.00 73 1016.3
20260905211549 81 13 0.0 0.0 0.00 0.00 0.00 72 1016.1
20260905210029 82 78 0.0 0.0 0.00 0.00 0.00 70 1016.2
20260905204522 82 153 0.0 0.0 0.00 0.00 0.00 71 1016.3
20260905203019 81 122 0.0 0.0 0.00 0.00 0.00 70 1016.3
20260905201515 81 125 0.0 0.0 0.00 0.00 0.00 71 1016.2
20260905200013 81 76 0.0 0.0 0.00 0.00 0.00 72 1016.4
20260905194505 82 133 0.0 0.0 0.00 0.00 0.00 70 1016.4
20260905193002 82 91 0.0 0.0 0.00 0.00 0.00 69 1016.5
20260905191556 0 75 0.0 0.0 0.00 0.00 0.00 100 1016.5
20260905171502 80 60 0.0 0.0 0.00 0.00 0.00 74 1016.4
20260905170057 81 75 0.0 0.0 0.00 0.00 0.00 72 1016.6
20260905164554 83 191 0.0 0.0 0.00 0.00 0.00 1016.5
20260905163048 83 117 0.0 0.0 0.00 0.00 0.00 70 1016.5
20260905161543 0 11 0.0 0.0 0.00 0.00 0.00 70 1016.5
20260905160029 81 129 0.0 0.0 0.00 0.00 0.00 75 1016.4
20260905154522 80 113 0.0 0.0 0.00 0.00 0.00 75 1016.3
20260905153018 81 222 0.0 0.0 0.00 0.00 0.00 74 1016.1
20260905151514 83 312 0.0 0.0 0.00 0.00 0.00 72 1016.0
20260905150009 82 212 0.0 0.0 0.00 0.00 0.00 71 1015.9
20260905144504 82 136 0.0 0.0 0.00 0.00 0.00 72 1015.7
20260905143100 0 329 0.0 0.0 0.00 0.00 0.00 1015.6
20260905141555 81 144 0.0 0.0 0.00 0.00 0.00 1015.5
20260905140050 81 51 0.0 0.0 0.00 0.00 0.00 100 1015.4
20260905134541 80 288 0.0 0.0 0.00 0.00 0.00 78 1015.6
20260905133024 79 77 0.0 0.0 0.00 0.00 0.00 79 1015.8
20260905131509 79 1 0.0 0.0 0.00 0.00 0.00 81 1015.5
20260905130002 78 293 0.0 0.0 0.00 0.00 0.00 1015.2
20260905124600 76 348 0.0 0.0 0.00 0.00 0.00 1 1015.1
20260905123052 75 309 0.0 0.0 0.00 0.00 0.00 90 1015.0
20260905121548 0 0.0 0.0 0.00 0.00 0.00 1014.9
20260905120043 0 0.0 0.0 0.00 0.00 0.00 1014.7
20260905114539 0 0.0 0.0 0.00 0.00 0.00 1014.4
20260905113037 0 0.0 0.0 0.00 0.00 0.00 1014.2
20260905111519 0 0.0 0.0 0.00 0.00 0.00 1014.0
20260905110019 0 0.0 0.0 0.00 0.00 0.00 1014.1
20260905104510 0 0.0 0.0 0.00 0.00 0.00 1014.0
20260905103007 0 0.0 0.0 0.00 0.00 0.00 1014.3